sensor_id;sensor_type;location;lat;lon;timestamp;pressure;altitude;pressure_sealevel;temperature
10869;BMP180;62667;48.698;8.762;2022-12-11T00:01:30;95180.00;;;-3.10
10869;BMP180;62667;48.698;8.762;2022-12-11T00:03:57;95184.00;;;-3.20
10869;BMP180;62667;48.698;8.762;2022-12-11T00:06:24;95177.00;;;-3.20
10869;BMP180;62667;48.698;8.762;2022-12-11T00:08:52;95167.00;;;-3.20
10869;BMP180;62667;48.698;8.762;2022-12-11T00:11:21;95174.00;;;-3.30
10869;BMP180;62667;48.698;8.762;2022-12-11T00:13:48;95173.00;;;-3.30
10869;BMP180;62667;48.698;8.762;2022-12-11T00:16:15;95150.00;;;-3.40
10869;BMP180;62667;48.698;8.762;2022-12-11T00:18:44;95172.00;;;-3.20
10869;BMP180;62667;48.698;8.762;2022-12-11T00:21:13;95165.00;;;-3.30
10869;BMP180;62667;48.698;8.762;2022-12-11T00:23:40;95170.00;;;-3.30
10869;BMP180;62667;48.698;8.762;2022-12-11T00:26:12;95157.00;;;-3.40
10869;BMP180;62667;48.698;8.762;2022-12-11T00:28:39;95163.00;;;-3.40
10869;BMP180;62667;48.698;8.762;2022-12-11T00:31:12;95172.00;;;-3.40
10869;BMP180;62667;48.698;8.762;2022-12-11T00:33:41;95168.00;;;-3.50
10869;BMP180;62667;48.698;8.762;2022-12-11T00:36:12;95158.00;;;-3.50
10869;BMP180;62667;48.698;8.762;2022-12-11T00:38:41;95161.00;;;-3.50
10869;BMP180;62667;48.698;8.762;2022-12-11T00:41:08;95165.00;;;-3.50
10869;BMP180;62667;48.698;8.762;2022-12-11T00:43:36;95172.00;;;-3.40
10869;BMP180;62667;48.698;8.762;2022-12-11T00:46:03;95155.00;;;-3.50
10869;BMP180;62667;48.698;8.762;2022-12-11T00:48:30;95168.00;;;-3.50
10869;BMP180;62667;48.698;8.762;2022-12-11T00:50:58;95174.00;;;-3.60
10869;BMP180;62667;48.698;8.762;2022-12-11T00:53:27;95181.00;;;-3.70
10869;BMP180;62667;48.698;8.762;2022-12-11T00:55:54;95167.00;;;-3.70
10869;BMP180;62667;48.698;8.762;2022-12-11T00:58:21;95175.00;;;-3.70
10869;BMP180;62667;48.698;8.762;2022-12-11T01:00:48;95184.00;;;-3.80
10869;BMP180;62667;48.698;8.762;2022-12-11T01:03:16;95177.00;;;-3.80
10869;BMP180;62667;48.698;8.762;2022-12-11T01:05:51;95191.00;;;-3.70
10869;BMP180;62667;48.698;8.762;2022-12-11T01:08:19;95173.00;;;-3.70
10869;BMP180;62667;48.698;8.762;2022-12-11T01:10:47;95186.00;;;-3.70
10869;BMP180;62667;48.698;8.762;2022-12-11T01:13:15;95186.00;;;-3.70
10869;BMP180;62667;48.698;8.762;2022-12-11T01:15:44;95197.00;;;-3.70
10869;BMP180;62667;48.698;8.762;2022-12-11T01:18:13;95195.00;;;-3.70
10869;BMP180;62667;48.698;8.762;2022-12-11T01:20:41;95209.00;;;-3.70
10869;BMP180;62667;48.698;8.762;2022-12-11T01:23:11;95197.00;;;-3.60
10869;BMP180;62667;48.698;8.762;2022-12-11T01:25:40;95213.00;;;-3.60
10869;BMP180;62667;48.698;8.762;2022-12-11T01:28:09;95209.00;;;-3.70
10869;BMP180;62667;48.698;8.762;2022-12-11T01:30:36;95217.00;;;-3.70
10869;BMP180;62667;48.698;8.762;2022-12-11T01:33:03;95218.00;;;-3.70
10869;BMP180;62667;48.698;8.762;2022-12-11T01:35:30;95205.00;;;-3.80
10869;BMP180;62667;48.698;8.762;2022-12-11T01:37:58;95215.00;;;-3.90
10869;BMP180;62667;48.698;8.762;2022-12-11T01:40:25;95209.00;;;-3.90
10869;BMP180;62667;48.698;8.762;2022-12-11T01:42:52;95213.00;;;-3.90
10869;BMP180;62667;48.698;8.762;2022-12-11T01:45:31;95215.00;;;-3.90
10869;BMP180;62667;48.698;8.762;2022-12-11T01:48:07;95221.00;;;-3.90
10869;BMP180;62667;48.698;8.762;2022-12-11T01:50:41;95230.00;;;-3.90
10869;BMP180;62667;48.698;8.762;2022-12-11T01:53:16;95237.00;;;-4.00
10869;BMP180;62667;48.698;8.762;2022-12-11T01:55:45;95239.00;;;-3.90
10869;BMP180;62667;48.698;8.762;2022-12-11T01:58:15;95235.00;;;-3.90
10869;BMP180;62667;48.698;8.762;2022-12-11T02:00:45;95222.00;;;-3.90
10869;BMP180;62667;48.698;8.762;2022-12-11T02:03:12;95227.00;;;-3.70
10869;BMP180;62667;48.698;8.762;2022-12-11T02:05:40;95227.00;;;-3.60
10869;BMP180;62667;48.698;8.762;2022-12-11T02:08:07;95227.00;;;-3.60
10869;BMP180;62667;48.698;8.762;2022-12-11T02:10:50;95223.00;;;-3.70
10869;BMP180;62667;48.698;8.762;2022-12-11T02:13:30;95226.00;;;-3.80
10869;BMP180;62667;48.698;8.762;2022-12-11T02:16:11;95236.00;;;-3.70
10869;BMP180;62667;48.698;8.762;2022-12-11T02:18:51;95238.00;;;-3.70
10869;BMP180;62667;48.698;8.762;2022-12-11T02:21:25;95243.00;;;-3.80
10869;BMP180;62667;48.698;8.762;2022-12-11T02:24:20;95237.00;;;-3.70
10869;BMP180;62667;48.698;8.762;2022-12-11T02:27:07;95233.00;;;-3.80
10869;BMP180;62667;48.698;8.762;2022-12-11T02:29:44;95223.00;;;-3.80
10869;BMP180;62667;48.698;8.762;2022-12-11T02:32:21;95224.00;;;-3.70
10869;BMP180;62667;48.698;8.762;2022-12-11T02:34:59;95224.00;;;-3.80
10869;BMP180;62667;48.698;8.762;2022-12-11T02:37:31;95231.00;;;-3.80
10869;BMP180;62667;48.698;8.762;2022-12-11T02:40:07;95228.00;;;-3.70
10869;BMP180;62667;48.698;8.762;2022-12-11T02:42:39;95235.00;;;-3.80
10869;BMP180;62667;48.698;8.762;2022-12-11T02:45:11;95188.00;;;-3.90
10869;BMP180;62667;48.698;8.762;2022-12-11T02:47:42;95230.00;;;-3.80
10869;BMP180;62667;48.698;8.762;2022-12-11T02:50:16;95230.00;;;-4.10
10869;BMP180;62667;48.698;8.762;2022-12-11T02:52:45;95222.00;;;-4.10
10869;BMP180;62667;48.698;8.762;2022-12-11T02:55:15;95238.00;;;-4.10
10869;BMP180;62667;48.698;8.762;2022-12-11T02:57:47;95238.00;;;-4.20
10869;BMP180;62667;48.698;8.762;2022-12-11T03:00:18;95229.00;;;-4.10
10869;BMP180;62667;48.698;8.762;2022-12-11T03:02:46;95228.00;;;-4.10
10869;BMP180;62667;48.698;8.762;2022-12-11T03:05:14;95216.00;;;-4.10
10869;BMP180;62667;48.698;8.762;2022-12-11T03:07:43;95225.00;;;-4.00
10869;BMP180;62667;48.698;8.762;2022-12-11T03:10:14;95220.00;;;-4.10
10869;BMP180;62667;48.698;8.762;2022-12-11T03:12:47;95226.00;;;-4.10
10869;BMP180;62667;48.698;8.762;2022-12-11T03:15:19;95232.00;;;-4.00
10869;BMP180;62667;48.698;8.762;2022-12-11T03:17:59;95231.00;;;-4.00
10869;BMP180;62667;48.698;8.762;2022-12-11T03:20:36;95219.00;;;-3.90
10869;BMP180;62667;48.698;8.762;2022-12-11T03:23:17;95213.00;;;-3.90
10869;BMP180;62667;48.698;8.762;2022-12-11T03:25:53;95226.00;;;-3.90
10869;BMP180;62667;48.698;8.762;2022-12-11T03:28:28;95228.00;;;-3.80
10869;BMP180;62667;48.698;8.762;2022-12-11T03:31:04;95205.00;;;-3.80
10869;BMP180;62667;48.698;8.762;2022-12-11T03:33:37;95227.00;;;-3.70
10869;BMP180;62667;48.698;8.762;2022-12-11T03:36:09;95203.00;;;-3.60
10869;BMP180;62667;48.698;8.762;2022-12-11T03:38:44;95222.00;;;-3.60
10869;BMP180;62667;48.698;8.762;2022-12-11T03:41:16;95230.00;;;-3.70
10869;BMP180;62667;48.698;8.762;2022-12-11T03:43:44;95232.00;;;-3.70
10869;BMP180;62667;48.698;8.762;2022-12-11T03:46:16;95224.00;;;-3.80
10869;BMP180;62667;48.698;8.762;2022-12-11T03:48:46;95226.00;;;-3.80
10869;BMP180;62667;48.698;8.762;2022-12-11T03:51:15;95236.00;;;-3.80
10869;BMP180;62667;48.698;8.762;2022-12-11T03:53:44;95222.00;;;-3.80
10869;BMP180;62667;48.698;8.762;2022-12-11T03:56:15;95229.00;;;-3.70
10869;BMP180;62667;48.698;8.762;2022-12-11T03:58:43;95218.00;;;-3.70
10869;BMP180;62667;48.698;8.762;2022-12-11T04:01:12;95221.00;;;-3.80
10869;BMP180;62667;48.698;8.762;2022-12-11T04:03:39;95231.00;;;-3.80
10869;BMP180;62667;48.698;8.762;2022-12-11T04:06:07;95217.00;;;-3.90
10869;BMP180;62667;48.698;8.762;2022-12-11T04:08:34;95222.00;;;-3.90
10869;BMP180;62667;48.698;8.762;2022-12-11T04:11:03;95225.00;;;-3.80
10869;BMP180;62667;48.698;8.762;2022-12-11T04:13:47;95217.00;;;-3.80
10869;BMP180;62667;48.698;8.762;2022-12-11T04:16:36;95221.00;;;-3.70
10869;BMP180;62667;48.698;8.762;2022-12-11T04:19:03;95196.00;;;-3.60
10869;BMP180;62667;48.698;8.762;2022-12-11T04:21:47;95205.00;;;-3.70
10869;BMP180;62667;48.698;8.762;2022-12-11T04:24:32;95203.00;;;-3.70
10869;BMP180;62667;48.698;8.762;2022-12-11T04:27:00;95207.00;;;-3.60
10869;BMP180;62667;48.698;8.762;2022-12-11T04:29:27;95212.00;;;-3.60
10869;BMP180;62667;48.698;8.762;2022-12-11T04:31:55;95203.00;;;-3.60
10869;BMP180;62667;48.698;8.762;2022-12-11T04:34:23;95195.00;;;-3.60
10869;BMP180;62667;48.698;8.762;2022-12-11T04:36:50;95185.00;;;-3.50
10869;BMP180;62667;48.698;8.762;2022-12-11T04:39:17;95198.00;;;-3.50
10869;BMP180;62667;48.698;8.762;2022-12-11T04:41:44;95187.00;;;-3.50
10869;BMP180;62667;48.698;8.762;2022-12-11T04:44:11;95184.00;;;-3.50
10869;BMP180;62667;48.698;8.762;2022-12-11T04:46:38;95191.00;;;-3.50
10869;BMP180;62667;48.698;8.762;2022-12-11T04:49:06;95189.00;;;-3.50
10869;BMP180;62667;48.698;8.762;2022-12-11T04:51:34;95194.00;;;-3.40
10869;BMP180;62667;48.698;8.762;2022-12-11T04:54:01;95189.00;;;-3.40
10869;BMP180;62667;48.698;8.762;2022-12-11T04:56:28;95187.00;;;-3.30
10869;BMP180;62667;48.698;8.762;2022-12-11T04:58:55;95205.00;;;-3.30
10869;BMP180;62667;48.698;8.762;2022-12-11T05:01:23;95187.00;;;-3.30
10869;BMP180;62667;48.698;8.762;2022-12-11T05:03:50;95197.00;;;-3.30
10869;BMP180;62667;48.698;8.762;2022-12-11T05:06:18;95202.00;;;-3.40
10869;BMP180;62667;48.698;8.762;2022-12-11T05:08:45;95185.00;;;-3.50
10869;BMP180;62667;48.698;8.762;2022-12-11T05:11:14;95195.00;;;-3.40
10869;BMP180;62667;48.698;8.762;2022-12-11T05:13:42;95179.00;;;-3.40
10869;BMP180;62667;48.698;8.762;2022-12-11T05:16:13;95185.00;;;-3.50
10869;BMP180;62667;48.698;8.762;2022-12-11T05:18:40;95166.00;;;-3.50
10869;BMP180;62667;48.698;8.762;2022-12-11T05:21:12;95185.00;;;-3.60
10869;BMP180;62667;48.698;8.762;2022-12-11T05:23:41;95183.00;;;-3.70
10869;BMP180;62667;48.698;8.762;2022-12-11T05:26:12;95179.00;;;-3.60
10869;BMP180;62667;48.698;8.762;2022-12-11T05:28:40;95165.00;;;-3.50
10869;BMP180;62667;48.698;8.762;2022-12-11T05:31:12;95183.00;;;-3.40
10869;BMP180;62667;48.698;8.762;2022-12-11T05:33:40;95173.00;;;-3.40
10869;BMP180;62667;48.698;8.762;2022-12-11T05:36:08;95164.00;;;-3.50
10869;BMP180;62667;48.698;8.762;2022-12-11T05:38:40;95158.00;;;-3.50
10869;BMP180;62667;48.698;8.762;2022-12-11T05:41:07;95162.00;;;-3.40
10869;BMP180;62667;48.698;8.762;2022-12-11T05:43:35;95164.00;;;-3.50
10869;BMP180;62667;48.698;8.762;2022-12-11T05:46:07;95155.00;;;-3.50
10869;BMP180;62667;48.698;8.762;2022-12-11T05:48:36;95161.00;;;-3.40
10869;BMP180;62667;48.698;8.762;2022-12-11T05:51:05;95154.00;;;-3.40
10869;BMP180;62667;48.698;8.762;2022-12-11T05:53:34;95147.00;;;-3.60
10869;BMP180;62667;48.698;8.762;2022-12-11T05:56:05;95148.00;;;-3.70
10869;BMP180;62667;48.698;8.762;2022-12-11T05:58:34;95154.00;;;-3.70
10869;BMP180;62667;48.698;8.762;2022-12-11T06:01:06;95144.00;;;-3.70
10869;BMP180;62667;48.698;8.762;2022-12-11T06:03:33;95149.00;;;-3.70
10869;BMP180;62667;48.698;8.762;2022-12-11T06:06:00;95146.00;;;-3.80
10869;BMP180;62667;48.698;8.762;2022-12-11T06:08:28;95144.00;;;-3.70
10869;BMP180;62667;48.698;8.762;2022-12-11T06:10:55;95136.00;;;-3.70
10869;BMP180;62667;48.698;8.762;2022-12-11T06:13:23;95135.00;;;-3.80
10869;BMP180;62667;48.698;8.762;2022-12-11T06:15:50;95139.00;;;-3.80
10869;BMP180;62667;48.698;8.762;2022-12-11T06:18:17;95135.00;;;-3.80
10869;BMP180;62667;48.698;8.762;2022-12-11T06:20:44;95138.00;;;-3.80
10869;BMP180;62667;48.698;8.762;2022-12-11T06:23:11;95143.00;;;-3.90
10869;BMP180;62667;48.698;8.762;2022-12-11T06:25:39;95137.00;;;-4.10
10869;BMP180;62667;48.698;8.762;2022-12-11T06:28:06;95123.00;;;-4.20
10869;BMP180;62667;48.698;8.762;2022-12-11T06:30:35;95131.00;;;-4.10
10869;BMP180;62667;48.698;8.762;2022-12-11T06:33:02;95136.00;;;-4.10
10869;BMP180;62667;48.698;8.762;2022-12-11T06:35:29;95126.00;;;-4.10
10869;BMP180;62667;48.698;8.762;2022-12-11T06:37:56;95133.00;;;-4.10
10869;BMP180;62667;48.698;8.762;2022-12-11T06:40:23;95127.00;;;-4.20
10869;BMP180;62667;48.698;8.762;2022-12-11T06:42:50;95137.00;;;-4.30
10869;BMP180;62667;48.698;8.762;2022-12-11T06:45:17;95137.00;;;-4.30
10869;BMP180;62667;48.698;8.762;2022-12-11T06:47:46;95140.00;;;-4.30
10869;BMP180;62667;48.698;8.762;2022-12-11T06:50:13;95145.00;;;-4.30
10869;BMP180;62667;48.698;8.762;2022-12-11T06:52:40;95155.00;;;-4.30
10869;BMP180;62667;48.698;8.762;2022-12-11T06:55:07;95153.00;;;-4.40
10869;BMP180;62667;48.698;8.762;2022-12-11T06:57:34;95160.00;;;-4.30
10869;BMP180;62667;48.698;8.762;2022-12-11T07:00:02;95158.00;;;-4.20
10869;BMP180;62667;48.698;8.762;2022-12-11T07:02:29;95157.00;;;-4.20
10869;BMP180;62667;48.698;8.762;2022-12-11T07:04:58;95165.00;;;-4.20
10869;BMP180;62667;48.698;8.762;2022-12-11T07:07:25;95161.00;;;-4.10
10869;BMP180;62667;48.698;8.762;2022-12-11T07:09:52;95164.00;;;-4.20
10869;BMP180;62667;48.698;8.762;2022-12-11T07:12:19;95165.00;;;-4.10
10869;BMP180;62667;48.698;8.762;2022-12-11T07:14:46;95159.00;;;-4.10
10869;BMP180;62667;48.698;8.762;2022-12-11T07:17:13;95158.00;;;-4.10
10869;BMP180;62667;48.698;8.762;2022-12-11T07:19:40;95159.00;;;-4.10
10869;BMP180;62667;48.698;8.762;2022-12-11T07:22:08;95160.00;;;-4.00
10869;BMP180;62667;48.698;8.762;2022-12-11T07:24:36;95162.00;;;-4.10
10869;BMP180;62667;48.698;8.762;2022-12-11T07:27:03;95170.00;;;-4.00
10869;BMP180;62667;48.698;8.762;2022-12-11T07:29:30;95164.00;;;-3.90
10869;BMP180;62667;48.698;8.762;2022-12-11T07:31:57;95155.00;;;-4.00
10869;BMP180;62667;48.698;8.762;2022-12-11T07:34:24;95166.00;;;-4.10
10869;BMP180;62667;48.698;8.762;2022-12-11T07:36:51;95160.00;;;-4.00
10869;BMP180;62667;48.698;8.762;2022-12-11T07:39:20;95164.00;;;-3.90
10869;BMP180;62667;48.698;8.762;2022-12-11T07:41:47;95160.00;;;-3.80
10869;BMP180;62667;48.698;8.762;2022-12-11T07:44:14;95167.00;;;-3.80
10869;BMP180;62667;48.698;8.762;2022-12-11T07:46:41;95166.00;;;-3.70
10869;BMP180;62667;48.698;8.762;2022-12-11T07:49:08;95153.00;;;-3.60
10869;BMP180;62667;48.698;8.762;2022-12-11T07:51:36;95160.00;;;-3.40
10869;BMP180;62667;48.698;8.762;2022-12-11T07:54:08;95150.00;;;-3.40
10869;BMP180;62667;48.698;8.762;2022-12-11T07:56:38;95154.00;;;-3.40
10869;BMP180;62667;48.698;8.762;2022-12-11T07:59:05;95157.00;;;-3.40
10869;BMP180;62667;48.698;8.762;2022-12-11T08:01:35;95166.00;;;-3.50
10869;BMP180;62667;48.698;8.762;2022-12-11T08:04:04;95153.00;;;-3.60
10869;BMP180;62667;48.698;8.762;2022-12-11T08:06:35;95175.00;;;-3.50
10869;BMP180;62667;48.698;8.762;2022-12-11T08:09:05;95177.00;;;-3.40
10869;BMP180;62667;48.698;8.762;2022-12-11T08:11:33;95168.00;;;-3.40
10869;BMP180;62667;48.698;8.762;2022-12-11T08:14:01;95179.00;;;-3.30
10869;BMP180;62667;48.698;8.762;2022-12-11T08:16:31;95166.00;;;-3.30
10869;BMP180;62667;48.698;8.762;2022-12-11T08:18:58;95161.00;;;-3.20
10869;BMP180;62667;48.698;8.762;2022-12-11T08:21:27;95168.00;;;-2.90
10869;BMP180;62667;48.698;8.762;2022-12-11T08:23:54;95160.00;;;-2.60
10869;BMP180;62667;48.698;8.762;2022-12-11T08:26:24;95157.00;;;-2.40
10869;BMP180;62667;48.698;8.762;2022-12-11T08:28:51;95160.00;;;-2.20
10869;BMP180;62667;48.698;8.762;2022-12-11T08:31:20;95163.00;;;-2.00
10869;BMP180;62667;48.698;8.762;2022-12-11T08:33:48;95164.00;;;-2.00
10869;BMP180;62667;48.698;8.762;2022-12-11T08:36:19;95172.00;;;-2.10
10869;BMP180;62667;48.698;8.762;2022-12-11T08:38:48;95169.00;;;-2.10
10869;BMP180;62667;48.698;8.762;2022-12-11T08:41:18;95169.00;;;-2.20
10869;BMP180;62667;48.698;8.762;2022-12-11T08:43:46;95163.00;;;-2.20
10869;BMP180;62667;48.698;8.762;2022-12-11T08:46:14;95165.00;;;-2.10
10869;BMP180;62667;48.698;8.762;2022-12-11T08:48:43;95149.00;;;-2.10
10869;BMP180;62667;48.698;8.762;2022-12-11T08:51:14;95159.00;;;-2.00
10869;BMP180;62667;48.698;8.762;2022-12-11T08:53:42;95154.00;;;-1.80
10869;BMP180;62667;48.698;8.762;2022-12-11T08:56:12;95144.00;;;-1.70
10869;BMP180;62667;48.698;8.762;2022-12-11T08:58:39;95143.00;;;-1.70
10869;BMP180;62667;48.698;8.762;2022-12-11T09:01:07;95151.00;;;-1.70
10869;BMP180;62667;48.698;8.762;2022-12-11T09:03:35;95148.00;;;-1.70
10869;BMP180;62667;48.698;8.762;2022-12-11T09:06:06;95148.00;;;-1.60
10869;BMP180;62667;48.698;8.762;2022-12-11T09:08:34;95147.00;;;-1.60
10869;BMP180;62667;48.698;8.762;2022-12-11T09:11:03;95133.00;;;-1.40
10869;BMP180;62667;48.698;8.762;2022-12-11T09:13:31;95137.00;;;-1.30
10869;BMP180;62667;48.698;8.762;2022-12-11T09:15:58;95112.00;;;-1.10
10869;BMP180;62667;48.698;8.762;2022-12-11T09:18:25;95135.00;;;-1.10
10869;BMP180;62667;48.698;8.762;2022-12-11T09:21:00;95139.00;;;-1.00
10869;BMP180;62667;48.698;8.762;2022-12-11T09:23:29;95135.00;;;-1.00
10869;BMP180;62667;48.698;8.762;2022-12-11T09:25:57;95134.00;;;-1.20
10869;BMP180;62667;48.698;8.762;2022-12-11T09:28:25;95145.00;;;-1.10
10869;BMP180;62667;48.698;8.762;2022-12-11T09:30:52;95148.00;;;-1.00
10869;BMP180;62667;48.698;8.762;2022-12-11T09:33:19;95133.00;;;-0.90
10869;BMP180;62667;48.698;8.762;2022-12-11T09:35:56;95136.00;;;-1.00
10869;BMP180;62667;48.698;8.762;2022-12-11T09:38:23;95119.00;;;-0.80
10869;BMP180;62667;48.698;8.762;2022-12-11T09:40:52;95139.00;;;-0.90
10869;BMP180;62667;48.698;8.762;2022-12-11T09:43:36;95143.00;;;-0.70
10869;BMP180;62667;48.698;8.762;2022-12-11T09:46:09;95129.00;;;-0.60
10869;BMP180;62667;48.698;8.762;2022-12-11T09:48:40;95142.00;;;-0.60
10869;BMP180;62667;48.698;8.762;2022-12-11T09:51:25;95132.00;;;-0.50
10869;BMP180;62667;48.698;8.762;2022-12-11T09:53:56;95135.00;;;-0.30
10869;BMP180;62667;48.698;8.762;2022-12-11T09:56:32;95143.00;;;-0.30
10869;BMP180;62667;48.698;8.762;2022-12-11T09:59:12;95129.00;;;-0.20
10869;BMP180;62667;48.698;8.762;2022-12-11T10:01:48;95129.00;;;-0.10
10869;BMP180;62667;48.698;8.762;2022-12-11T10:04:33;95141.00;;;-0.10
10869;BMP180;62667;48.698;8.762;2022-12-11T10:07:10;95133.00;;;0.10
10869;BMP180;62667;48.698;8.762;2022-12-11T10:09:48;95114.00;;;0.40
10869;BMP180;62667;48.698;8.762;2022-12-11T10:12:32;95113.00;;;0.50
10869;BMP180;62667;48.698;8.762;2022-12-11T10:15:19;95113.00;;;0.60
10869;BMP180;62667;48.698;8.762;2022-12-11T10:17:52;95114.00;;;0.60
10869;BMP180;62667;48.698;8.762;2022-12-11T10:20:24;95105.00;;;0.60
10869;BMP180;62667;48.698;8.762;2022-12-11T10:22:53;95104.00;;;0.60
10869;BMP180;62667;48.698;8.762;2022-12-11T10:25:26;95104.00;;;0.60
10869;BMP180;62667;48.698;8.762;2022-12-11T10:27:55;95104.00;;;0.60
10869;BMP180;62667;48.698;8.762;2022-12-11T10:30:24;95099.00;;;0.60
10869;BMP180;62667;48.698;8.762;2022-12-11T10:32:58;95100.00;;;0.50
10869;BMP180;62667;48.698;8.762;2022-12-11T10:35:35;95102.00;;;0.50
10869;BMP180;62667;48.698;8.762;2022-12-11T10:38:13;95094.00;;;0.50
10869;BMP180;62667;48.698;8.762;2022-12-11T10:40:45;95088.00;;;0.40
10869;BMP180;62667;48.698;8.762;2022-12-11T10:43:14;95095.00;;;0.50
10869;BMP180;62667;48.698;8.762;2022-12-11T10:45:51;95089.00;;;0.50
10869;BMP180;62667;48.698;8.762;2022-12-11T10:48:19;95070.00;;;0.50
10869;BMP180;62667;48.698;8.762;2022-12-11T10:50:58;95083.00;;;0.50
10869;BMP180;62667;48.698;8.762;2022-12-11T10:53:27;95081.00;;;0.50
10869;BMP180;62667;48.698;8.762;2022-12-11T10:55:56;95086.00;;;0.30
10869;BMP180;62667;48.698;8.762;2022-12-11T10:58:29;95074.00;;;0.50
10869;BMP180;62667;48.698;8.762;2022-12-11T11:01:05;95081.00;;;0.40
10869;BMP180;62667;48.698;8.762;2022-12-11T11:03:42;95064.00;;;0.60
10869;BMP180;62667;48.698;8.762;2022-12-11T11:06:19;95075.00;;;0.50
10869;BMP180;62667;48.698;8.762;2022-12-11T11:08:50;95071.00;;;0.50
10869;BMP180;62667;48.698;8.762;2022-12-11T11:11:25;95061.00;;;0.50
10869;BMP180;62667;48.698;8.762;2022-12-11T11:14:13;95065.00;;;0.50
10869;BMP180;62667;48.698;8.762;2022-12-11T11:16:43;95068.00;;;0.50
10869;BMP180;62667;48.698;8.762;2022-12-11T11:19:20;95057.00;;;0.40
10869;BMP180;62667;48.698;8.762;2022-12-11T11:21:51;95056.00;;;0.40
10869;BMP180;62667;48.698;8.762;2022-12-11T11:24:28;95062.00;;;0.50
10869;BMP180;62667;48.698;8.762;2022-12-11T11:26:57;95061.00;;;0.70
10869;BMP180;62667;48.698;8.762;2022-12-11T11:29:30;95056.00;;;0.70
10869;BMP180;62667;48.698;8.762;2022-12-11T11:32:16;95065.00;;;0.70
10869;BMP180;62667;48.698;8.762;2022-12-11T11:34:45;95058.00;;;0.70
10869;BMP180;62667;48.698;8.762;2022-12-11T11:37:25;95062.00;;;0.60
10869;BMP180;62667;48.698;8.762;2022-12-11T11:39:58;95052.00;;;0.50
10869;BMP180;62667;48.698;8.762;2022-12-11T11:42:42;95045.00;;;0.30
10869;BMP180;62667;48.698;8.762;2022-12-11T11:45:21;95057.00;;;0.30
10869;BMP180;62667;48.698;8.762;2022-12-11T11:47:59;95051.00;;;0.40
10869;BMP180;62667;48.698;8.762;2022-12-11T11:50:35;95059.00;;;0.40
10869;BMP180;62667;48.698;8.762;2022-12-11T11:53:09;95055.00;;;0.30
10869;BMP180;62667;48.698;8.762;2022-12-11T11:55:48;95047.00;;;0.40
10869;BMP180;62667;48.698;8.762;2022-12-11T11:58:24;95060.00;;;0.40
10869;BMP180;62667;48.698;8.762;2022-12-11T12:00:54;95049.00;;;0.30
10869;BMP180;62667;48.698;8.762;2022-12-11T12:03:23;95050.00;;;0.20
10869;BMP180;62667;48.698;8.762;2022-12-11T12:05:57;95046.00;;;-0.30
10869;BMP180;62667;48.698;8.762;2022-12-11T12:08:41;95050.00;;;0.10
10869;BMP180;62667;48.698;8.762;2022-12-11T12:11:22;95048.00;;;0.20
10869;BMP180;62667;48.698;8.762;2022-12-11T12:14:04;95053.00;;;0.20
10869;BMP180;62667;48.698;8.762;2022-12-11T12:16:43;95053.00;;;0.30
10869;BMP180;62667;48.698;8.762;2022-12-11T12:19:26;95040.00;;;0.20
10869;BMP180;62667;48.698;8.762;2022-12-11T12:22:07;95041.00;;;0.30
10869;BMP180;62667;48.698;8.762;2022-12-11T12:24:47;95043.00;;;0.40
10869;BMP180;62667;48.698;8.762;2022-12-11T12:27:22;95040.00;;;0.40
10869;BMP180;62667;48.698;8.762;2022-12-11T12:30:00;95023.00;;;0.50
10869;BMP180;62667;48.698;8.762;2022-12-11T12:32:40;95025.00;;;0.60
10869;BMP180;62667;48.698;8.762;2022-12-11T12:35:18;95014.00;;;0.50
10869;BMP180;62667;48.698;8.762;2022-12-11T12:37:57;95014.00;;;0.60
10869;BMP180;62667;48.698;8.762;2022-12-11T12:40:32;95018.00;;;0.50
10869;BMP180;62667;48.698;8.762;2022-12-11T12:43:25;95011.00;;;0.70
10869;BMP180;62667;48.698;8.762;2022-12-11T12:46:06;95016.00;;;0.80
10869;BMP180;62667;48.698;8.762;2022-12-11T12:48:36;95021.00;;;1.00
10869;BMP180;62667;48.698;8.762;2022-12-11T12:51:05;95015.00;;;1.10
10869;BMP180;62667;48.698;8.762;2022-12-11T12:53:35;95025.00;;;1.00
10869;BMP180;62667;48.698;8.762;2022-12-11T12:56:05;95019.00;;;1.00
10869;BMP180;62667;48.698;8.762;2022-12-11T12:58:42;95023.00;;;0.70
10869;BMP180;62667;48.698;8.762;2022-12-11T13:01:16;95024.00;;;0.80
10869;BMP180;62667;48.698;8.762;2022-12-11T13:03:56;95027.00;;;0.70
10869;BMP180;62667;48.698;8.762;2022-12-11T13:06:31;95031.00;;;0.60
10869;BMP180;62667;48.698;8.762;2022-12-11T13:09:12;95024.00;;;0.30
10869;BMP180;62667;48.698;8.762;2022-12-11T13:11:40;95041.00;;;0.50
10869;BMP180;62667;48.698;8.762;2022-12-11T13:14:25;95022.00;;;0.60
10869;BMP180;62667;48.698;8.762;2022-12-11T13:17:21;95025.00;;;0.70
10869;BMP180;62667;48.698;8.762;2022-12-11T13:20:10;95030.00;;;0.60
10869;BMP180;62667;48.698;8.762;2022-12-11T13:22:50;95026.00;;;0.60
10869;BMP180;62667;48.698;8.762;2022-12-11T13:25:24;95017.00;;;0.60
10869;BMP180;62667;48.698;8.762;2022-12-11T13:27:52;95028.00;;;0.50
10869;BMP180;62667;48.698;8.762;2022-12-11T13:30:25;95018.00;;;0.40
10869;BMP180;62667;48.698;8.762;2022-12-11T13:33:01;94995.00;;;0.50
10869;BMP180;62667;48.698;8.762;2022-12-11T13:35:32;95006.00;;;0.40
10869;BMP180;62667;48.698;8.762;2022-12-11T13:38:05;95032.00;;;0.20
10869;BMP180;62667;48.698;8.762;2022-12-11T13:40:38;95036.00;;;0.20
10869;BMP180;62667;48.698;8.762;2022-12-11T13:43:17;95029.00;;;0.20
10869;BMP180;62667;48.698;8.762;2022-12-11T13:45:48;95038.00;;;0.20
10869;BMP180;62667;48.698;8.762;2022-12-11T13:48:22;95039.00;;;0.20
10869;BMP180;62667;48.698;8.762;2022-12-11T13:50:53;95028.00;;;0.30
10869;BMP180;62667;48.698;8.762;2022-12-11T13:53:22;95027.00;;;0.30
10869;BMP180;62667;48.698;8.762;2022-12-11T13:55:58;95038.00;;;0.40
10869;BMP180;62667;48.698;8.762;2022-12-11T13:58:27;95038.00;;;0.40
10869;BMP180;62667;48.698;8.762;2022-12-11T14:01:05;95044.00;;;0.40
10869;BMP180;62667;48.698;8.762;2022-12-11T14:03:38;95039.00;;;0.40
10869;BMP180;62667;48.698;8.762;2022-12-11T14:06:11;95046.00;;;0.40
10869;BMP180;62667;48.698;8.762;2022-12-11T14:08:43;95038.00;;;0.50
10869;BMP180;62667;48.698;8.762;2022-12-11T14:11:21;95043.00;;;0.50
10869;BMP180;62667;48.698;8.762;2022-12-11T14:13:49;95054.00;;;0.40
10869;BMP180;62667;48.698;8.762;2022-12-11T14:16:21;95048.00;;;0.40
10869;BMP180;62667;48.698;8.762;2022-12-11T14:18:50;95058.00;;;0.40
10869;BMP180;62667;48.698;8.762;2022-12-11T14:21:23;95055.00;;;0.30
10869;BMP180;62667;48.698;8.762;2022-12-11T14:23:54;95057.00;;;0.30
10869;BMP180;62667;48.698;8.762;2022-12-11T14:26:24;95062.00;;;0.20
10869;BMP180;62667;48.698;8.762;2022-12-11T14:28:52;95061.00;;;0.20
10869;BMP180;62667;48.698;8.762;2022-12-11T14:31:26;95062.00;;;0.10
10869;BMP180;62667;48.698;8.762;2022-12-11T14:34:01;95071.00;;;0.10
10869;BMP180;62667;48.698;8.762;2022-12-11T14:36:32;95060.00;;;0.00